Time;durP1;ratioP1;P1;durP2;ratioP2;P2;SDS_P1;SDS_P2;PMS_P1;PMS_P2;Temp;Humidity;BMP_temperature;BMP_pressure;BME280_temperature;BME280_humidity;BME280_pressure;Samples;Min_cycle;Max_cycle;Signal;HPM_P1;HPM_P2
2022/09/06 00:01:31;;;;;;;3.65;1.98;;;24.50;99.90;;;;;;4174141;28;20238;-74
2022/09/06 00:03:33;;;;;;;3.95;2.10;;;24.50;99.90;;;;;;4160442;28;20217;-74
2022/09/06 00:05:36;;;;;;;3.30;2.03;;;24.50;99.90;;;;;;4169700;28;20228;-74
2022/09/06 00:07:38;;;;;;;3.08;2.08;;;24.50;99.90;;;;;;4172044;28;20260;-74
2022/09/06 00:09:41;;;;;;;2.42;1.90;;;24.50;99.90;;;;;;4175388;28;20212;-74
2022/09/06 00:11:44;;;;;;;2.92;1.98;;;24.50;99.90;;;;;;4173298;28;20614;-74
2022/09/06 00:13:47;;;;;;;2.95;2.30;;;24.50;99.90;;;;;;4166096;28;20262;-74
2022/09/06 00:15:49;;;;;;;3.17;2.15;;;24.50;99.90;;;;;;4166983;28;20220;-74
2022/09/06 00:17:51;;;;;;;3.70;1.95;;;24.50;99.90;;;;;;4177118;28;20278;-74
2022/09/06 00:19:54;;;;;;;2.92;2.28;;;24.40;99.90;;;;;;4166645;28;20275;-74
2022/09/06 00:21:56;;;;;;;4.07;2.20;;;24.50;99.90;;;;;;4168769;28;20224;-74
2022/09/06 00:23:58;;;;;;;2.03;1.73;;;24.40;99.90;;;;;;4171275;28;20219;-74
2022/09/06 00:26:04;;;;;;;2.00;1.80;;;24.50;99.90;;;;;;4174053;28;20246;-74
2022/09/06 00:28:08;;;;;;;2.55;1.90;;;24.40;99.90;;;;;;4165157;28;20232;-74
2022/09/06 00:30:11;;;;;;;2.47;1.92;;;24.50;99.90;;;;;;4165606;28;20216;-74
2022/09/06 00:32:13;;;;;;;4.60;1.80;;;24.40;99.90;;;;;;4170649;28;20219;-74
2022/09/06 00:34:16;;;;;;;2.65;1.90;;;24.40;99.90;;;;;;4166190;28;20255;-74
2022/09/06 00:36:19;;;;;;;2.58;2.03;;;24.40;99.90;;;;;;4175933;28;20724;-74
2022/09/06 00:38:21;;;;;;;3.97;1.88;;;24.40;99.90;;;;;;4165643;28;20668;-74
2022/09/06 00:40:26;;;;;;;2.88;1.95;;;24.40;99.90;;;;;;4169400;28;20240;-74
2022/09/06 00:42:28;;;;;;;2.45;2.00;;;24.40;99.90;;;;;;4168875;28;20221;-74
2022/09/06 00:44:32;;;;;;;1.65;1.55;;;24.40;99.90;;;;;;4177446;28;20220;-74
2022/09/06 00:46:37;;;;;;;3.20;1.95;;;24.40;99.90;;;;;;4164894;28;20223;-74
2022/09/06 00:48:41;;;;;;;3.17;1.98;;;24.40;99.90;;;;;;4167276;28;20655;-74
2022/09/06 00:50:44;;;;;;;2.25;1.90;;;24.40;99.90;;;;;;4172744;28;20227;-74
2022/09/06 00:52:48;;;;;;;3.60;2.05;;;24.40;99.90;;;;;;4169626;28;20224;-74
2022/09/06 00:54:51;;;;;;;2.35;1.63;;;24.40;99.90;;;;;;4164845;28;20715;-74
2022/09/06 00:56:55;;;;;;;2.25;1.83;;;24.40;99.90;;;;;;4166554;28;20212;-74
2022/09/06 00:58:57;;;;;;;2.95;2.05;;;24.40;99.90;;;;;;4170276;28;20641;-74
2022/09/06 01:01:01;;;;;;;2.42;1.70;;;24.40;99.90;;;;;;4174642;28;20204;-74
2022/09/06 01:03:04;;;;;;;3.58;1.80;;;24.40;99.90;;;;;;4165170;28;20626;-74
2022/09/06 01:05:07;;;;;;;5.22;2.03;;;24.40;99.90;;;;;;4158391;28;20269;-74
2022/09/06 01:07:18;;;;;;;4.18;2.20;;;24.40;99.90;;;;;;4170189;28;20220;-74
2022/09/06 01:09:33;;;;;;;2.00;1.80;;;24.40;99.90;;;;;;4157584;28;20241;-74
2022/09/06 01:11:48;;;;;;;2.00;1.65;;;24.40;99.90;;;;;;4168798;28;20273;-74
2022/09/06 01:13:59;;;;;;;2.65;2.08;;;24.40;99.90;;;;;;4171712;28;20261;-74
2022/09/06 01:16:13;;;;;;;2.35;1.88;;;24.40;99.90;;;;;;4162763;28;20220;-74
2022/09/06 01:18:28;;;;;;;3.47;1.95;;;24.40;99.90;;;;;;4163898;28;20433;-74
2022/09/06 01:20:48;;;;;;;2.70;1.60;;;24.40;99.90;;;;;;4165855;28;20220;-74
2022/09/06 01:23:18;;;;;;;2.03;1.80;;;24.40;99.90;;;;;;4173407;28;20245;-74
2022/09/06 01:25:35;;;;;;;2.80;2.13;;;24.40;99.90;;;;;;4168142;28;20271;-74
2022/09/06 01:28:13;;;;;;;2.15;1.90;;;24.40;99.90;;;;;;4165035;28;20216;-74
2022/09/06 01:30:19;;;;;;;2.45;1.80;;;24.30;99.90;;;;;;4169585;28;20289;-74
2022/09/06 01:32:28;;;;;;;2.00;1.70;;;24.30;99.90;;;;;;4173853;28;20224;-74
2022/09/06 01:34:37;;;;;;;1.65;1.55;;;24.30;99.90;;;;;;4151211;28;20680;-74
2022/09/06 01:36:46;;;;;;;2.67;1.95;;;24.30;99.90;;;;;;4170097;28;20220;-74
2022/09/06 01:38:49;;;;;;;3.03;2.08;;;24.30;99.90;;;;;;4160757;28;20220;-74
2022/09/06 01:40:51;;;;;;;2.35;1.98;;;24.30;99.90;;;;;;4172868;28;20662;-74
2022/09/06 01:42:54;;;;;;;3.20;1.95;;;24.30;99.90;;;;;;4164381;28;20657;-74
2022/09/06 01:45:00;;;;;;;2.55;1.88;;;24.30;99.90;;;;;;4165977;28;20216;-74
2022/09/06 01:47:13;;;;;;;2.15;1.80;;;24.30;99.90;;;;;;4167535;28;20220;-74
2022/09/06 01:49:30;;;;;;;2.40;1.60;;;24.30;99.90;;;;;;4173631;28;20308;-74
2022/09/06 01:51:38;;;;;;;2.70;1.80;;;24.30;99.90;;;;;;4161129;28;20609;-74
2022/09/06 01:53:58;;;;;;;2.25;1.75;;;24.30;99.90;;;;;;4166600;28;20270;-74
2022/09/06 01:56:08;;;;;;;2.75;1.88;;;24.30;99.90;;;;;;4170119;28;20223;-74
2022/09/06 01:58:29;;;;;;;2.08;1.85;;;24.30;99.90;;;;;;4172545;28;20212;-74
2022/09/06 02:00:39;;;;;;;3.70;1.88;;;24.30;99.90;;;;;;4152277;28;20224;-74
2022/09/06 02:02:57;;;;;;;2.40;1.63;;;24.30;99.90;;;;;;4165566;28;20224;-74
2022/09/06 02:05:04;;;;;;;2.33;1.60;;;24.30;99.90;;;;;;4162992;28;20239;-74
2022/09/06 02:07:12;;;;;;;1.60;1.50;;;24.30;99.90;;;;;;4159968;28;20211;-74
2022/09/06 02:09:19;;;;;;;2.22;1.65;;;24.30;99.90;;;;;;4160892;28;20282;-73
2022/09/06 02:11:23;;;;;;;2.35;1.92;;;24.20;99.90;;;;;;4163887;28;20220;-74
2022/09/06 02:13:31;;;;;;;2.55;1.90;;;24.20;99.90;;;;;;4162292;28;20224;-74
2022/09/06 02:15:37;;;;;;;2.35;1.80;;;24.20;99.90;;;;;;4161138;28;20219;-74
2022/09/06 02:17:45;;;;;;;2.10;1.63;;;24.20;99.90;;;;;;4155212;28;20263;-74
2022/09/06 02:19:53;;;;;;;2.53;1.73;;;24.20;99.90;;;;;;4162163;28;20219;-74
2022/09/06 02:21:58;;;;;;;2.10;1.55;;;24.20;99.90;;;;;;4163114;28;20220;-74
2022/09/06 02:24:06;;;;;;;2.53;1.75;;;24.30;99.90;;;;;;4161331;28;20288;-74
2022/09/06 02:26:12;;;;;;;3.10;1.83;;;24.20;99.90;;;;;;4167639;28;20224;-74
2022/09/06 02:28:15;;;;;;;2.05;1.60;;;24.20;99.90;;;;;;4160399;28;20258;-74
2022/09/06 02:30:17;;;;;;;1.92;1.60;;;24.20;99.90;;;;;;4162114;28;20274;-74
2022/09/06 02:32:22;;;;;;;2.10;1.60;;;24.20;99.90;;;;;;4163721;28;20216;-74
2022/09/06 02:34:24;;;;;;;2.30;1.80;;;24.20;99.90;;;;;;4161698;28;20738;-74
2022/09/06 02:36:30;;;;;;;2.20;1.65;;;24.20;99.90;;;;;;4161854;28;20727;-74
2022/09/06 02:38:35;;;;;;;1.63;1.50;;;24.20;99.90;;;;;;4162093;28;20208;-74
2022/09/06 02:40:37;;;;;;;2.75;1.73;;;24.20;99.90;;;;;;4161324;28;20270;-74
2022/09/06 02:42:41;;;;;;;2.72;1.80;;;24.20;99.90;;;;;;4161772;28;20216;-74
2022/09/06 02:44:43;;;;;;;1.77;1.60;;;24.20;99.90;;;;;;4163388;28;20220;-74
2022/09/06 02:46:45;;;;;;;2.17;1.60;;;24.20;99.90;;;;;;4160336;28;20212;-74
2022/09/06 02:48:47;;;;;;;2.50;1.75;;;24.20;99.90;;;;;;4161029;28;20236;-74
2022/09/06 02:50:50;;;;;;;1.98;1.70;;;24.20;99.90;;;;;;4165372;28;20215;-74
2022/09/06 02:53:03;;;;;;;2.00;1.60;;;24.10;99.90;;;;;;4161989;28;20220;-74
2022/09/06 02:55:07;;;;;;;2.33;1.75;;;24.20;99.90;;;;;;4159869;28;20228;-74
2022/09/06 02:57:09;;;;;;;2.47;1.90;;;24.20;99.90;;;;;;4164343;28;20270;-74
2022/09/06 02:59:11;;;;;;;2.17;1.67;;;24.20;99.90;;;;;;4162704;28;20212;-74
2022/09/06 03:01:14;;;;;;;2.22;1.45;;;24.20;99.90;;;;;;4159135;28;20208;-74
2022/09/06 03:03:16;;;;;;;1.83;1.45;;;24.20;99.90;;;;;;4166420;28;20703;-74
2022/09/06 03:05:18;;;;;;;3.13;1.77;;;24.20;99.90;;;;;;4167985;28;20576;-74
2022/09/06 03:07:21;;;;;;;1.85;1.65;;;24.20;99.90;;;;;;4164637;28;20266;-74
2022/09/06 03:09:25;;;;;;;1.98;1.73;;;24.20;99.90;;;;;;4163975;28;20301;-74
2022/09/06 03:11:27;;;;;;;2.10;1.70;;;24.20;99.90;;;;;;4166178;28;20216;-74
2022/09/06 03:13:30;;;;;;;2.08;1.88;;;24.10;99.90;;;;;;4165125;28;20217;-74
2022/09/06 03:15:32;;;;;;;1.70;1.50;;;24.20;99.90;;;;;;4164046;28;20212;-74
2022/09/06 03:17:34;;;;;;;2.53;1.75;;;24.20;99.90;;;;;;4164997;28;20216;-74
2022/09/06 03:19:36;;;;;;;4.38;1.90;;;24.10;99.90;;;;;;4166144;28;20213;-74
2022/09/06 03:21:39;;;;;;;1.50;1.40;;;24.10;99.90;;;;;;4165039;28;20689;-74
2022/09/06 03:23:41;;;;;;;1.75;1.65;;;24.10;99.90;;;;;;4165951;28;20259;-74
2022/09/06 03:25:45;;;;;;;2.00;1.80;;;24.20;99.90;;;;;;4164759;28;20564;-74
2022/09/06 03:27:47;;;;;;;2.00;1.60;;;24.20;99.90;;;;;;4162220;28;20272;-74
2022/09/06 03:29:50;;;;;;;3.40;1.92;;;24.10;99.90;;;;;;4163139;28;20311;-74
2022/09/06 03:31:52;;;;;;;3.20;1.90;;;24.10;99.90;;;;;;4163923;28;20274;-74
2022/09/06 03:33:54;;;;;;;2.05;1.33;;;24.10;99.90;;;;;;4165168;28;20271;-74
2022/09/06 03:35:59;;;;;;;3.20;1.58;;;24.10;99.90;;;;;;4163786;28;20220;-74
2022/09/06 03:38:01;;;;;;;2.80;1.65;;;24.10;99.90;;;;;;4161904;28;20274;-74
2022/09/06 03:40:05;;;;;;;1.63;1.52;;;24.10;99.90;;;;;;4164172;28;20254;-74
2022/09/06 03:42:08;;;;;;;3.80;1.83;;;24.10;99.90;;;;;;4159239;28;20216;-74
2022/09/06 03:44:11;;;;;;;2.22;1.70;;;24.10;99.90;;;;;;4164000;28;20610;-74
2022/09/06 03:46:13;;;;;;;2.17;1.83;;;24.10;99.90;;;;;;4162991;28;20216;-74
2022/09/06 03:48:16;;;;;;;2.03;1.77;;;24.10;99.90;;;;;;4164495;28;20224;-74
2022/09/06 03:50:19;;;;;;;2.67;1.70;;;24.10;99.90;;;;;;4164316;28;20675;-74
2022/09/06 03:52:21;;;;;;;2.15;1.80;;;24.10;99.90;;;;;;4162293;28;20274;-74
2022/09/06 03:54:23;;;;;;;3.20;1.65;;;24.10;99.90;;;;;;4163185;28;20213;-74
2022/09/06 03:56:25;;;;;;;3.15;1.90;;;24.10;99.90;;;;;;4163566;28;20631;-74
2022/09/06 03:58:31;;;;;;;2.00;1.73;;;24.10;99.90;;;;;;4161898;28;20534;-74
2022/09/06 04:00:34;;;;;;;3.08;1.80;;;24.10;99.90;;;;;;4162326;28;20208;-74
2022/09/06 04:02:36;;;;;;;2.63;1.85;;;24.10;99.90;;;;;;4164054;28;21428;-74
2022/09/06 04:04:38;;;;;;;1.83;1.60;;;24.10;99.90;;;;;;4162645;28;20656;-74
2022/09/06 04:06:41;;;;;;;2.05;1.90;;;24.10;99.90;;;;;;4162552;28;20981;-74
2022/09/06 04:08:43;;;;;;;3.45;1.80;;;24.10;99.90;;;;;;4163778;28;21030;-74
2022/09/06 04:10:45;;;;;;;2.05;1.65;;;24.10;99.90;;;;;;4162515;28;20236;-75
2022/09/06 04:12:47;;;;;;;2.85;1.73;;;24.10;99.90;;;;;;4163560;28;20221;-74
2022/09/06 04:14:51;;;;;;;3.03;1.70;;;24.10;99.90;;;;;;4160363;28;20287;-74
2022/09/06 04:16:53;;;;;;;2.00;1.80;;;24.10;99.90;;;;;;4164090;28;20267;-74
2022/09/06 04:18:58;;;;;;;2.92;1.60;;;24.10;99.90;;;;;;4162564;28;20629;-74
2022/09/06 04:21:01;;;;;;;2.00;1.70;;;24.10;99.90;;;;;;4163621;28;20200;-74
2022/09/06 04:23:03;;;;;;;2.85;1.95;;;24.10;99.90;;;;;;4165968;28;20266;-74
2022/09/06 04:25:07;;;;;;;1.90;1.60;;;24.10;99.90;;;;;;4163366;28;20213;-74
2022/09/06 04:27:09;;;;;;;2.42;1.90;;;24.10;99.90;;;;;;4160237;28;20282;-74
2022/09/06 04:29:11;;;;;;;2.28;1.40;;;24.00;99.90;;;;;;4162306;28;20236;-74
2022/09/06 04:31:15;;;;;;;1.88;1.33;;;24.10;99.90;;;;;;4164656;28;20220;-74
2022/09/06 04:33:17;;;;;;;1.90;1.55;;;24.10;99.90;;;;;;4164191;28;21058;-74
2022/09/06 04:35:20;;;;;;;1.88;1.70;;;24.10;99.90;;;;;;4163173;28;20270;-74
2022/09/06 04:37:22;;;;;;;2.42;1.70;;;24.00;99.90;;;;;;4162053;28;20263;-74
2022/09/06 04:39:24;;;;;;;1.90;1.52;;;24.00;99.90;;;;;;4164422;28;20267;-74
2022/09/06 04:41:27;;;;;;;1.95;1.65;;;24.00;99.90;;;;;;4162217;28;20216;-74
2022/09/06 04:43:29;;;;;;;1.88;1.55;;;24.00;99.90;;;;;;4161757;28;20621;-74
2022/09/06 04:45:31;;;;;;;2.53;1.70;;;24.00;99.90;;;;;;4163827;28;20660;-74
2022/09/06 04:47:35;;;;;;;2.28;1.50;;;24.00;99.90;;;;;;4159813;28;20616;-74
2022/09/06 04:49:37;;;;;;;2.42;1.80;;;24.00;99.90;;;;;;4160253;28;20216;-74
2022/09/06 04:51:40;;;;;;;1.60;1.50;;;24.10;99.90;;;;;;4162164;28;20212;-74
2022/09/06 04:53:42;;;;;;;1.60;1.48;;;24.00;99.90;;;;;;4162229;28;20306;-74
2022/09/06 04:55:44;;;;;;;2.95;2.00;;;24.00;99.90;;;;;;4162949;28;20281;-74
2022/09/06 04:57:47;;;;;;;2.58;1.58;;;24.00;99.90;;;;;;4162724;28;20224;-74
2022/09/06 04:59:49;;;;;;;2.63;1.60;;;24.00;99.90;;;;;;4163373;28;20655;-74
2022/09/06 05:01:51;;;;;;;1.73;1.60;;;24.00;99.90;;;;;;4162542;28;20216;-74
2022/09/06 05:03:55;;;;;;;3.67;2.03;;;24.00;99.90;;;;;;4161911;28;20273;-74
2022/09/06 05:06:05;;;;;;;3.55;1.60;;;24.00;99.90;;;;;;4162184;28;20247;-74
2022/09/06 05:08:07;;;;;;;2.03;1.65;;;24.00;99.90;;;;;;4162260;28;20211;-74
2022/09/06 05:10:10;;;;;;;2.25;1.65;;;24.00;99.90;;;;;;4161851;28;20244;-74
2022/09/06 05:12:12;;;;;;;1.70;1.60;;;24.00;99.90;;;;;;4160059;28;20220;-74
2022/09/06 05:14:14;;;;;;;2.05;1.85;;;24.00;99.90;;;;;;4163077;28;20220;-74
2022/09/06 05:16:17;;;;;;;2.63;1.70;;;24.00;99.90;;;;;;4161656;28;20228;-74
2022/09/06 05:18:19;;;;;;;3.05;1.77;;;24.00;99.90;;;;;;4161419;28;20278;-75
2022/09/06 05:20:23;;;;;;;2.25;1.60;;;24.00;99.90;;;;;;4162613;28;20271;-74
2022/09/06 05:22:25;;;;;;;1.50;1.40;;;24.00;99.90;;;;;;4161754;28;20263;-74
2022/09/06 05:24:28;;;;;;;1.98;1.60;;;24.00;99.90;;;;;;4161500;28;20262;-74
2022/09/06 05:26:30;;;;;;;1.88;1.67;;;24.00;99.90;;;;;;4161299;28;20228;-74
2022/09/06 05:28:32;;;;;;;1.80;1.70;;;24.00;99.90;;;;;;4162061;28;20286;-74
2022/09/06 05:30:35;;;;;;;1.77;1.58;;;24.00;99.90;;;;;;4156038;28;20290;-74
2022/09/06 05:32:37;;;;;;;1.90;1.73;;;24.00;99.90;;;;;;4160707;28;20262;-74
2022/09/06 05:34:39;;;;;;;2.20;1.60;;;24.00;99.90;;;;;;4162338;28;20223;-74
2022/09/06 05:36:44;;;;;;;3.00;1.80;;;24.00;99.90;;;;;;4161433;28;20267;-74
2022/09/06 05:38:46;;;;;;;3.05;2.10;;;24.00;99.90;;;;;;4162001;28;20216;-74
2022/09/06 05:40:48;;;;;;;1.90;1.70;;;24.00;99.90;;;;;;4163809;28;20350;-74
2022/09/06 05:42:51;;;;;;;2.35;2.15;;;24.00;99.90;;;;;;4162157;28;20212;-74
2022/09/06 05:44:53;;;;;;;3.25;1.77;;;24.00;99.90;;;;;;4161041;28;20630;-74
2022/09/06 05:46:55;;;;;;;1.90;1.70;;;24.00;99.90;;;;;;4161271;28;20287;-74
2022/09/06 05:49:00;;;;;;;1.98;1.73;;;24.00;99.90;;;;;;4160974;28;20849;-74
2022/09/06 05:51:04;;;;;;;2.58;1.67;;;24.00;99.90;;;;;;4161391;28;20298;-74
2022/09/06 05:53:08;;;;;;;2.88;1.73;;;24.00;99.90;;;;;;4162417;28;20208;-74
2022/09/06 05:55:10;;;;;;;3.88;1.63;;;24.00;99.90;;;;;;4159980;28;20291;-74
2022/09/06 05:57:12;;;;;;;2.30;1.73;;;24.00;99.90;;;;;;4161993;28;20259;-74
2022/09/06 05:59:14;;;;;;;3.20;1.73;;;24.00;99.90;;;;;;4160756;28;20612;-74
2022/09/06 06:01:19;;;;;;;1.85;1.55;;;24.00;99.90;;;;;;4162937;28;20212;-74
2022/09/06 06:03:21;;;;;;;1.60;1.48;;;24.00;99.90;;;;;;4161239;28;20220;-74
2022/09/06 06:05:23;;;;;;;2.20;1.60;;;24.00;99.90;;;;;;4161197;28;20216;-74
2022/09/06 06:07:26;;;;;;;2.00;1.58;;;24.00;99.90;;;;;;4162387;28;20279;-74
2022/09/06 06:09:29;;;;;;;2.00;1.58;;;24.00;99.90;;;;;;4160303;28;20215;-74
2022/09/06 06:11:32;;;;;;;1.75;1.30;;;24.10;99.90;;;;;;4162930;28;20298;-74
2022/09/06 06:13:38;;;;;;;2.55;1.70;;;24.00;99.90;;;;;;4164376;28;20220;-74
2022/09/06 06:15:40;;;;;;;2.13;1.80;;;24.00;99.90;;;;;;4157689;28;20596;-74
2022/09/06 06:17:42;;;;;;;3.17;1.60;;;24.00;99.90;;;;;;4161664;28;20263;-74
2022/09/06 06:19:45;;;;;;;2.33;1.50;;;24.00;99.90;;;;;;4162606;28;20220;-74
2022/09/06 06:21:47;;;;;;;2.38;1.80;;;24.00;99.90;;;;;;4162326;28;20898;-74
2022/09/06 06:23:51;;;;;;;2.45;1.77;;;24.00;99.90;;;;;;4162990;28;20280;-74
2022/09/06 06:25:55;;;;;;;1.83;1.55;;;24.10;99.90;;;;;;4161181;28;20212;-74
2022/09/06 06:27:58;;;;;;;4.28;1.80;;;24.00;99.90;;;;;;4160204;28;20248;-74
2022/09/06 06:30:00;;;;;;;3.17;1.95;;;24.10;99.90;;;;;;4161029;28;20262;-74
2022/09/06 06:32:03;;;;;;;1.90;1.50;;;24.00;99.90;;;;;;4162008;28;20248;-74
2022/09/06 06:34:05;;;;;;;2.03;1.80;;;24.10;99.90;;;;;;4161974;28;20208;-74
2022/09/06 06:36:20;;;;;;;2.45;1.40;;;24.10;99.90;;;;;;4163887;28;20228;-74
2022/09/06 06:38:22;;;;;;;3.05;1.60;;;24.00;99.90;;;;;;4159013;28;20263;-74
2022/09/06 06:40:25;;;;;;;1.70;1.40;;;24.10;99.90;;;;;;4160686;28;20220;-74
2022/09/06 06:42:28;;;;;;;2.10;1.80;;;24.00;99.90;;;;;;4159158;28;20209;-74
2022/09/06 06:44:31;;;;;;;2.03;1.58;;;24.00;99.90;;;;;;4160798;28;20224;-75
2022/09/06 06:46:34;;;;;;;2.28;1.58;;;24.00;99.90;;;;;;4159711;28;20216;-74
2022/09/06 06:48:39;;;;;;;2.65;2.00;;;24.00;99.90;;;;;;4160649;28;20212;-74
2022/09/06 06:50:41;;;;;;;2.03;1.60;;;24.00;99.90;;;;;;4162693;28;20301;-74
2022/09/06 06:52:44;;;;;;;2.17;1.80;;;24.10;99.90;;;;;;4157130;28;20212;-75
2022/09/06 06:54:47;;;;;;;5.63;2.90;;;24.10;99.90;;;;;;4158436;28;20209;-76
2022/09/06 06:56:50;;;;;;;6.13;3.08;;;23.60;99.90;;;;;;4158630;28;20238;-75
2022/09/06 06:58:57;;;;;;;7.75;3.22;;;23.20;99.90;;;;;;4158152;28;20278;-76
2022/09/06 07:00:59;;;;;;;8.82;3.58;;;23.10;99.90;;;;;;4149430;28;20213;-75
2022/09/06 07:03:02;;;;;;;8.52;3.60;;;22.90;99.90;;;;;;4156303;28;20351;-75
2022/09/06 07:05:05;;;;;;;5.78;3.50;;;22.80;99.90;;;;;;4160268;28;20266;-75
2022/09/06 07:07:08;;;;;;;8.27;3.10;;;22.80;99.90;;;;;;4158224;28;20212;-75
2022/09/06 07:09:10;;;;;;;7.43;2.95;;;22.70;99.90;;;;;;4155969;28;20220;-76
2022/09/06 07:11:14;;;;;;;6.75;3.25;;;22.60;99.90;;;;;;4158339;28;20704;-77
2022/09/06 07:13:17;;;;;;;4.20;2.83;;;22.50;99.90;;;;;;4159195;28;20267;-77
2022/09/06 07:15:23;;;;;;;7.32;3.38;;;22.40;99.90;;;;;;4160159;28;22208;-77
2022/09/06 07:17:26;;;;;;;5.30;3.03;;;22.30;99.90;;;;;;4162001;28;21530;-77
2022/09/06 07:19:28;;;;;;;8.70;2.88;;;22.40;99.90;;;;;;4163399;28;20204;-75
2022/09/06 07:21:31;;;;;;;5.40;2.90;;;22.50;99.90;;;;;;4168613;28;21019;-76
2022/09/06 07:23:33;;;;;;;5.00;2.90;;;22.40;99.90;;;;;;4165888;28;20557;-77
2022/09/06 07:25:38;;;;;;;4.90;2.83;;;22.50;99.90;;;;;;4160844;28;20225;-76
2022/09/06 07:27:42;;;;;;;6.47;2.88;;;22.50;99.90;;;;;;4152369;28;20275;-77
2022/09/06 07:29:44;;;;;;;7.85;2.72;;;22.50;99.90;;;;;;4158004;28;20267;-75
2022/09/06 07:31:48;;;;;;;5.25;2.95;;;22.50;99.90;;;;;;4160902;28;20243;-75
2022/09/06 07:33:51;;;;;;;6.03;2.70;;;22.50;99.90;;;;;;4159133;28;20213;-76
2022/09/06 07:35:58;;;;;;;5.68;2.70;;;22.60;99.90;;;;;;4159305;28;20320;-77
2022/09/06 07:38:01;;;;;;;4.82;2.88;;;22.60;99.90;;;;;;4158269;28;20227;-75
2022/09/06 07:40:04;;;;;;;5.28;2.55;;;22.70;99.90;;;;;;4164029;28;20273;-75
2022/09/06 07:42:07;;;;;;;5.65;3.08;;;22.80;99.90;;;;;;4162661;28;20584;-76
2022/09/06 07:44:17;;;;;;;8.75;2.63;;;22.80;99.90;;;;;;4157775;28;20270;-77
2022/09/06 07:46:20;;;;;;;4.53;2.80;;;22.70;99.90;;;;;;4158357;28;20557;-77
2022/09/06 07:48:24;;;;;;;7.53;3.08;;;22.80;99.90;;;;;;4158302;28;20259;-76
2022/09/06 07:50:27;;;;;;;11.30;3.00;;;22.70;99.90;;;;;;4163493;28;20220;-77
2022/09/06 07:52:32;;;;;;;6.07;3.00;;;22.70;99.90;;;;;;4158210;28;20784;-77
2022/09/06 07:54:35;;;;;;;6.38;3.20;;;22.50;99.90;;;;;;4164554;28;20270;-77
2022/09/06 07:56:37;;;;;;;9.10;3.13;;;22.50;99.90;;;;;;4163753;28;20200;-75
2022/09/06 07:58:40;;;;;;;8.02;3.25;;;22.50;99.90;;;;;;4166755;28;20230;-76
2022/09/06 08:00:43;;;;;;;4.07;2.80;;;22.50;99.90;;;;;;4167233;28;20510;-76
2022/09/06 08:02:45;;;;;;;5.95;3.50;;;22.50;99.90;;;;;;4156930;28;20266;-75
2022/09/06 08:04:49;;;;;;;7.97;3.72;;;22.70;99.90;;;;;;4156111;28;20217;-75
2022/09/06 08:06:52;;;;;;;6.18;3.33;;;22.70;99.90;;;;;;4162888;28;20216;-75
2022/09/06 08:08:55;;;;;;;9.40;3.85;;;22.70;99.90;;;;;;4162272;28;20212;-76
2022/09/06 08:10:58;;;;;;;12.90;4.43;;;22.70;99.90;;;;;;4164987;28;20271;-79
2022/09/06 08:13:00;;;;;;;7.57;4.97;;;22.70;99.90;;;;;;4166494;28;20266;-76
2022/09/06 08:15:02;;;;;;;7.75;5.07;;;22.70;99.90;;;;;;4159419;28;20638;-78
2022/09/06 08:17:05;;;;;;;11.35;5.07;;;22.60;99.90;;;;;;4162106;28;20266;-77
2022/09/06 08:19:09;;;;;;;10.27;5.20;;;22.60;99.90;;;;;;4157864;28;20192;-78
2022/09/06 08:21:15;;;;;;;8.95;5.28;;;22.60;99.90;;;;;;4163543;28;20204;-77
2022/09/06 08:23:18;;;;;;;6.20;4.70;;;22.60;99.90;;;;;;4166409;28;20212;-77
2022/09/06 08:25:21;;;;;;;7.78;5.05;;;22.60;99.90;;;;;;4164688;28;20270;-76
2022/09/06 08:27:25;;;;;;;10.98;5.20;;;22.70;99.90;;;;;;4163559;28;20220;-76
2022/09/06 08:29:28;;;;;;;9.38;5.85;;;22.70;99.90;;;;;;4161957;28;20228;-76
2022/09/06 08:31:32;;;;;;;7.93;5.30;;;22.70;99.90;;;;;;4164191;28;20346;-77
2022/09/06 08:33:36;;;;;;;9.05;5.35;;;22.70;99.90;;;;;;4162324;28;20216;-75
2022/09/06 08:35:38;;;;;;;13.05;5.63;;;22.70;99.90;;;;;;4156620;28;20217;-76
2022/09/06 08:37:42;;;;;;;10.02;5.55;;;22.60;99.90;;;;;;4159035;28;20269;-74
2022/09/06 08:39:44;;;;;;;12.57;5.90;;;22.60;99.90;;;;;;4167070;28;21105;-76
2022/09/06 08:41:51;;;;;;;8.45;5.72;;;22.70;99.90;;;;;;4162212;28;20282;-75
2022/09/06 08:43:56;;;;;;;15.05;5.90;;;22.70;99.90;;;;;;4160958;28;21053;-76
2022/09/06 08:45:58;;;;;;;12.23;5.53;;;22.80;99.90;;;;;;4164429;28;20266;-74
2022/09/06 08:48:01;;;;;;;12.60;6.15;;;22.90;99.90;;;;;;4158725;28;20266;-75
2022/09/06 08:50:07;;;;;;;9.60;5.35;;;23.00;99.90;;;;;;4156579;28;20221;-74
2022/09/06 08:52:26;;;;;;;11.50;5.47;;;23.10;99.90;;;;;;4168010;28;22028;-75
2022/09/06 08:54:36;;;;;;;9.43;6.13;;;23.20;99.90;;;;;;4163816;28;20212;-75
2022/09/06 08:57:03;;;;;;;10.38;5.85;;;23.10;99.90;;;;;;4162115;28;20566;-75
2022/09/06 08:59:10;;;;;;;8.25;5.82;;;23.20;99.90;;;;;;4162296;28;20270;-76
2022/09/06 09:01:16;;;;;;;10.65;6.28;;;23.20;99.90;;;;;;4157911;28;20213;-75
2022/09/06 09:03:21;;;;;;;9.82;6.28;;;23.20;99.90;;;;;;4162754;28;20266;-75
2022/09/06 09:05:27;;;;;;;14.10;6.72;;;23.30;99.90;;;;;;4158175;28;20216;-76
2022/09/06 09:07:43;;;;;;;8.52;6.90;;;23.30;99.90;;;;;;4159307;28;20664;-78
2022/09/06 09:09:46;;;;;;;12.75;7.15;;;23.40;99.90;;;;;;4161901;28;20216;-76
2022/09/06 09:11:51;;;;;;;8.18;6.40;;;23.40;99.90;;;;;;4158779;28;20302;-76
2022/09/06 09:13:58;;;;;;;14.98;8.52;;;23.40;99.90;;;;;;4162883;28;20665;-77
2022/09/06 09:16:00;;;;;;;13.27;8.27;;;23.40;99.90;;;;;;4161203;28;20952;-75
2022/09/06 09:18:03;;;;;;;11.18;8.18;;;23.40;99.90;;;;;;4165455;28;20216;-76
2022/09/06 09:20:07;;;;;;;10.20;7.65;;;23.40;99.90;;;;;;4162602;28;20224;-76
2022/09/06 09:22:10;;;;;;;13.50;7.55;;;23.50;99.90;;;;;;4163001;28;20224;-76
2022/09/06 09:24:15;;;;;;;11.40;7.68;;;23.50;99.90;;;;;;4159277;28;20221;-76
2022/09/06 09:26:19;;;;;;;13.30;7.57;;;23.60;99.90;;;;;;4160129;28;20212;-78
2022/09/06 09:28:24;;;;;;;11.23;7.22;;;23.60;99.90;;;;;;4157105;28;20282;-76
2022/09/06 09:30:44;;;;;;;17.25;9.60;;;23.60;99.90;;;;;;4162443;28;20311;-76
2022/09/06 09:32:46;;;;;;;11.93;7.65;;;23.70;99.90;;;;;;4165073;28;20236;-74
2022/09/06 09:34:49;;;;;;;10.60;7.28;;;23.70;99.90;;;;;;4160386;28;20259;-76
2022/09/06 09:37:10;;;;;;;12.00;7.38;;;23.80;99.90;;;;;;4165717;28;20258;-76
2022/09/06 09:39:13;;;;;;;9.68;6.97;;;23.80;99.90;;;;;;4159345;28;21619;-76
2022/09/06 09:41:30;;;;;;;10.35;7.30;;;23.80;99.90;;;;;;4164838;28;20609;-76
2022/09/06 09:43:34;;;;;;;9.88;6.78;;;23.80;99.90;;;;;;4161812;28;20221;-77
2022/09/06 09:45:37;;;;;;;9.27;6.72;;;23.80;99.90;;;;;;4155903;28;20292;-77
2022/09/06 09:47:39;;;;;;;9.63;7.07;;;23.80;99.90;;;;;;4160604;28;20705;-76
2022/09/06 09:49:41;;;;;;;8.85;6.22;;;23.90;99.90;;;;;;4160610;28;20224;-76
2022/09/06 09:51:46;;;;;;;9.15;6.05;;;23.90;99.90;;;;;;4162268;28;20220;-77
2022/09/06 09:53:53;;;;;;;10.52;5.35;;;23.90;99.90;;;;;;4162140;28;20278;-74
2022/09/06 09:55:57;;;;;;;7.70;5.07;;;23.90;99.90;;;;;;4154461;28;20225;-75
2022/09/06 09:58:01;;;;;;;10.38;4.68;;;24.00;99.90;;;;;;4162990;28;20262;-75
2022/09/06 10:00:11;;;;;;;9.55;4.45;;;24.00;99.90;;;;;;4155362;28;20216;-74
2022/09/06 10:02:21;;;;;;;8.73;4.60;;;24.00;99.90;;;;;;4162850;28;20626;-74
2022/09/06 10:04:29;;;;;;;8.30;4.70;;;24.00;99.90;;;;;;4158818;28;20220;-74
2022/09/06 10:06:31;;;;;;;6.75;4.50;;;24.00;99.90;;;;;;4161876;28;20278;-75
2022/09/06 10:08:38;;;;;;;7.30;4.50;;;24.10;99.90;;;;;;4162657;28;20216;-75
2022/09/06 10:10:46;;;;;;;7.90;3.88;;;24.10;99.90;;;;;;4162578;28;20266;-75
2022/09/06 10:12:49;;;;;;;5.40;3.15;;;24.20;99.90;;;;;;4162072;28;20243;-77
2022/09/06 10:14:52;;;;;;;3.92;3.00;;;24.20;99.90;;;;;;4159140;28;20216;-76
2022/09/06 10:16:55;;;;;;;5.80;3.28;;;24.20;99.90;;;;;;4150962;28;20275;-76
2022/09/06 10:18:57;;;;;;;6.07;2.78;;;24.20;99.90;;;;;;4156433;28;20211;-76
2022/09/06 10:21:03;;;;;;;5.00;2.72;;;24.20;99.90;;;;;;4163392;28;20730;-76
2022/09/06 10:23:15;;;;;;;6.00;2.85;;;24.20;99.90;;;;;;4162406;28;20266;-76
2022/09/06 10:25:38;;;;;;;6.82;2.80;;;24.20;99.90;;;;;;4158633;28;20589;-75
2022/09/06 10:27:52;;;;;;;4.32;2.78;;;24.30;99.90;;;;;;4158734;28;20270;-75
2022/09/06 10:30:01;;;;;;;4.88;2.35;;;24.30;99.90;;;;;;4158808;28;20264;-75
2022/09/06 10:32:17;;;;;;;5.70;2.38;;;24.30;99.90;;;;;;4158721;28;20239;-75
2022/09/06 10:34:54;;;;;;;3.78;2.08;;;24.20;99.90;;;;;;4156898;28;20232;-75
2022/09/06 10:37:08;;;;;;;5.90;2.70;;;24.20;99.90;;;;;;4157048;28;20220;-75
2022/09/06 10:39:31;;;;;;;4.15;2.50;;;24.30;99.90;;;;;;4158930;28;20661;-76
2022/09/06 10:41:46;;;;;;;5.25;2.58;;;24.40;99.90;;;;;;4160178;28;20285;-75
2022/09/06 10:43:57;;;;;;;4.22;2.40;;;24.40;99.90;;;;;;4157006;28;20212;-75
2022/09/06 10:46:04;;;;;;;6.07;2.60;;;24.40;99.90;;;;;;4161674;28;20278;-75
2022/09/06 10:48:12;;;;;;;3.40;2.47;;;24.50;99.90;;;;;;4156817;28;20770;-76
2022/09/06 10:50:15;;;;;;;4.65;2.20;;;24.50;99.90;;;;;;4163047;28;20216;-75